sensor_id;sensor_type;location;lat;lon;timestamp;P1;durP1;ratioP1;P2;durP2;ratioP2
25870;SDS011;13689;48.590;7.752;2023-11-21T00:02:19;6.13;;;1.83;;
25870;SDS011;13689;48.590;7.752;2023-11-21T00:04:46;8.88;;;1.80;;
25870;SDS011;13689;48.590;7.752;2023-11-21T00:07:13;10.07;;;1.88;;
25870;SDS011;13689;48.590;7.752;2023-11-21T00:09:39;8.20;;;2.20;;
25870;SDS011;13689;48.590;7.752;2023-11-21T00:12:06;12.55;;;2.13;;
25870;SDS011;13689;48.590;7.752;2023-11-21T00:14:34;6.63;;;1.63;;
25870;SDS011;13689;48.590;7.752;2023-11-21T00:17:03;10.95;;;1.70;;
25870;SDS011;13689;48.590;7.752;2023-11-21T00:19:30;11.00;;;1.90;;
25870;SDS011;13689;48.590;7.752;2023-11-21T00:21:56;7.47;;;1.88;;
25870;SDS011;13689;48.590;7.752;2023-11-21T00:24:23;10.45;;;2.05;;
25870;SDS011;13689;48.590;7.752;2023-11-21T00:26:50;14.65;;;3.13;;
25870;SDS011;13689;48.590;7.752;2023-11-21T00:29:16;8.20;;;2.17;;
25870;SDS011;13689;48.590;7.752;2023-11-21T00:31:42;9.25;;;1.80;;
25870;SDS011;13689;48.590;7.752;2023-11-21T00:34:09;9.32;;;2.10;;
25870;SDS011;13689;48.590;7.752;2023-11-21T00:36:34;13.43;;;1.65;;
25870;SDS011;13689;48.590;7.752;2023-11-21T00:39:00;13.82;;;1.70;;
25870;SDS011;13689;48.590;7.752;2023-11-21T00:41:27;9.30;;;1.90;;
25870;SDS011;13689;48.590;7.752;2023-11-21T00:43:53;10.85;;;2.05;;
25870;SDS011;13689;48.590;7.752;2023-11-21T00:46:20;10.07;;;1.65;;
25870;SDS011;13689;48.590;7.752;2023-11-21T00:48:46;8.70;;;1.65;;
25870;SDS011;13689;48.590;7.752;2023-11-21T00:51:11;8.25;;;1.50;;
25870;SDS011;13689;48.590;7.752;2023-11-21T00:53:37;6.15;;;1.40;;
25870;SDS011;13689;48.590;7.752;2023-11-21T00:56:03;7.95;;;1.40;;
25870;SDS011;13689;48.590;7.752;2023-11-21T00:58:28;9.05;;;1.35;;
25870;SDS011;13689;48.590;7.752;2023-11-21T01:00:55;16.45;;;1.60;;
25870;SDS011;13689;48.590;7.752;2023-11-21T01:03:21;9.05;;;1.02;;
25870;SDS011;13689;48.590;7.752;2023-11-21T01:05:46;10.77;;;1.33;;
25870;SDS011;13689;48.590;7.752;2023-11-21T01:08:14;4.50;;;1.23;;
25870;SDS011;13689;48.590;7.752;2023-11-21T01:10:40;8.35;;;1.23;;
25870;SDS011;13689;48.590;7.752;2023-11-21T01:13:05;7.25;;;1.20;;
25870;SDS011;13689;48.590;7.752;2023-11-21T01:15:32;4.75;;;1.10;;
25870;SDS011;13689;48.590;7.752;2023-11-21T01:17:58;5.82;;;1.58;;
25870;SDS011;13689;48.590;7.752;2023-11-21T01:20:24;8.38;;;1.40;;
25870;SDS011;13689;48.590;7.752;2023-11-21T01:22:49;6.28;;;1.88;;
25870;SDS011;13689;48.590;7.752;2023-11-21T01:25:15;7.13;;;1.17;;
25870;SDS011;13689;48.590;7.752;2023-11-21T01:27:41;6.57;;;1.38;;
25870;SDS011;13689;48.590;7.752;2023-11-21T01:30:07;9.88;;;1.58;;
25870;SDS011;13689;48.590;7.752;2023-11-21T01:32:35;12.82;;;1.73;;
25870;SDS011;13689;48.590;7.752;2023-11-21T01:35:01;4.45;;;1.30;;
25870;SDS011;13689;48.590;7.752;2023-11-21T01:37:28;10.13;;;1.40;;
25870;SDS011;13689;48.590;7.752;2023-11-21T01:39:54;11.63;;;1.80;;
25870;SDS011;13689;48.590;7.752;2023-11-21T01:42:20;10.13;;;1.65;;
25870;SDS011;13689;48.590;7.752;2023-11-21T01:44:46;4.35;;;1.23;;
25870;SDS011;13689;48.590;7.752;2023-11-21T01:47:12;6.55;;;1.23;;
25870;SDS011;13689;48.590;7.752;2023-11-21T01:49:39;3.47;;;1.30;;
25870;SDS011;13689;48.590;7.752;2023-11-21T01:52:05;4.95;;;1.13;;
25870;SDS011;13689;48.590;7.752;2023-11-21T01:54:31;9.25;;;2.45;;
25870;SDS011;13689;48.590;7.752;2023-11-21T01:57:00;2.88;;;1.30;;
25870;SDS011;13689;48.590;7.752;2023-11-21T01:59:29;5.90;;;1.20;;
25870;SDS011;13689;48.590;7.752;2023-11-21T02:02:01;3.90;;;1.50;;
25870;SDS011;13689;48.590;7.752;2023-11-21T02:04:34;5.25;;;1.10;;
25870;SDS011;13689;48.590;7.752;2023-11-21T02:07:04;5.10;;;1.30;;
25870;SDS011;13689;48.590;7.752;2023-11-21T02:09:33;7.40;;;1.67;;
25870;SDS011;13689;48.590;7.752;2023-11-21T02:11:59;5.97;;;1.20;;
25870;SDS011;13689;48.590;7.752;2023-11-21T02:14:26;1.40;;;0.90;;
25870;SDS011;13689;48.590;7.752;2023-11-21T02:16:52;7.35;;;1.40;;
25870;SDS011;13689;48.590;7.752;2023-11-21T02:19:19;10.55;;;2.45;;
25870;SDS011;13689;48.590;7.752;2023-11-21T02:21:47;4.30;;;1.20;;
25870;SDS011;13689;48.590;7.752;2023-11-21T02:24:21;3.97;;;1.00;;
25870;SDS011;13689;48.590;7.752;2023-11-21T02:26:48;4.60;;;1.17;;
25870;SDS011;13689;48.590;7.752;2023-11-21T02:29:16;10.38;;;1.30;;
25870;SDS011;13689;48.590;7.752;2023-11-21T02:31:43;6.93;;;1.30;;
25870;SDS011;13689;48.590;7.752;2023-11-21T02:34:16;1.98;;;0.85;;
25870;SDS011;13689;48.590;7.752;2023-11-21T02:36:43;5.03;;;1.05;;
25870;SDS011;13689;48.590;7.752;2023-11-21T02:39:12;6.85;;;1.10;;
25870;SDS011;13689;48.590;7.752;2023-11-21T02:41:38;4.53;;;0.85;;
25870;SDS011;13689;48.590;7.752;2023-11-21T02:44:04;2.55;;;0.93;;
25870;SDS011;13689;48.590;7.752;2023-11-21T02:46:31;3.13;;;1.20;;
25870;SDS011;13689;48.590;7.752;2023-11-21T02:49:00;5.28;;;1.15;;
25870;SDS011;13689;48.590;7.752;2023-11-21T02:51:31;7.28;;;1.15;;
25870;SDS011;13689;48.590;7.752;2023-11-21T02:53:57;2.00;;;1.02;;
25870;SDS011;13689;48.590;7.752;2023-11-21T02:56:27;8.25;;;1.30;;
25870;SDS011;13689;48.590;7.752;2023-11-21T02:58:54;6.25;;;1.25;;
25870;SDS011;13689;48.590;7.752;2023-11-21T03:01:21;5.82;;;1.17;;
25870;SDS011;13689;48.590;7.752;2023-11-21T03:03:48;5.67;;;1.37;;
25870;SDS011;13689;48.590;7.752;2023-11-21T03:06:16;5.20;;;1.20;;
25870;SDS011;13689;48.590;7.752;2023-11-21T03:08:42;2.97;;;0.90;;
25870;SDS011;13689;48.590;7.752;2023-11-21T03:11:08;4.47;;;1.10;;
25870;SDS011;13689;48.590;7.752;2023-11-21T03:13:33;7.35;;;1.13;;
25870;SDS011;13689;48.590;7.752;2023-11-21T03:15:59;7.40;;;1.90;;
25870;SDS011;13689;48.590;7.752;2023-11-21T03:18:24;2.63;;;1.08;;
25870;SDS011;13689;48.590;7.752;2023-11-21T03:20:51;1.95;;;0.70;;
25870;SDS011;13689;48.590;7.752;2023-11-21T03:23:18;9.52;;;1.17;;
25870;SDS011;13689;48.590;7.752;2023-11-21T03:25:44;10.48;;;1.00;;
25870;SDS011;13689;48.590;7.752;2023-11-21T03:28:10;2.33;;;0.80;;
25870;SDS011;13689;48.590;7.752;2023-11-21T03:30:36;6.63;;;0.93;;
25870;SDS011;13689;48.590;7.752;2023-11-21T03:33:02;2.58;;;0.90;;
25870;SDS011;13689;48.590;7.752;2023-11-21T03:35:28;7.65;;;1.10;;
25870;SDS011;13689;48.590;7.752;2023-11-21T03:37:53;3.70;;;0.82;;
25870;SDS011;13689;48.590;7.752;2023-11-21T03:40:19;9.63;;;0.88;;
25870;SDS011;13689;48.590;7.752;2023-11-21T03:42:46;6.35;;;1.13;;
25870;SDS011;13689;48.590;7.752;2023-11-21T03:45:12;8.02;;;1.33;;
25870;SDS011;13689;48.590;7.752;2023-11-21T03:47:39;3.50;;;1.00;;
25870;SDS011;13689;48.590;7.752;2023-11-21T03:50:08;4.40;;;1.00;;
25870;SDS011;13689;48.590;7.752;2023-11-21T03:52:34;5.30;;;0.90;;
25870;SDS011;13689;48.590;7.752;2023-11-21T03:55:00;1.35;;;0.98;;
25870;SDS011;13689;48.590;7.752;2023-11-21T03:57:26;4.15;;;1.08;;
25870;SDS011;13689;48.590;7.752;2023-11-21T03:59:52;1.33;;;1.00;;
25870;SDS011;13689;48.590;7.752;2023-11-21T04:02:18;3.15;;;0.90;;
25870;SDS011;13689;48.590;7.752;2023-11-21T04:04:44;2.60;;;1.00;;
25870;SDS011;13689;48.590;7.752;2023-11-21T04:07:10;2.72;;;0.93;;
25870;SDS011;13689;48.590;7.752;2023-11-21T04:09:36;3.38;;;1.13;;
25870;SDS011;13689;48.590;7.752;2023-11-21T04:12:01;5.75;;;0.93;;
25870;SDS011;13689;48.590;7.752;2023-11-21T04:14:27;3.00;;;0.85;;
25870;SDS011;13689;48.590;7.752;2023-11-21T04:16:53;3.03;;;0.93;;
25870;SDS011;13689;48.590;7.752;2023-11-21T04:19:19;3.15;;;1.00;;
25870;SDS011;13689;48.590;7.752;2023-11-21T04:21:44;1.95;;;0.88;;
25870;SDS011;13689;48.590;7.752;2023-11-21T04:24:11;3.10;;;0.85;;
25870;SDS011;13689;48.590;7.752;2023-11-21T04:26:36;2.85;;;1.00;;
25870;SDS011;13689;48.590;7.752;2023-11-21T04:29:02;7.43;;;1.63;;
25870;SDS011;13689;48.590;7.752;2023-11-21T04:31:29;3.33;;;0.98;;
25870;SDS011;13689;48.590;7.752;2023-11-21T04:33:55;5.55;;;1.13;;
25870;SDS011;13689;48.590;7.752;2023-11-21T04:36:21;2.28;;;0.82;;
25870;SDS011;13689;48.590;7.752;2023-11-21T04:38:46;3.95;;;1.13;;
25870;SDS011;13689;48.590;7.752;2023-11-21T04:41:12;5.07;;;1.10;;
25870;SDS011;13689;48.590;7.752;2023-11-21T04:43:37;5.05;;;1.30;;
25870;SDS011;13689;48.590;7.752;2023-11-21T04:46:03;3.40;;;1.27;;
25870;SDS011;13689;48.590;7.752;2023-11-21T04:48:29;2.45;;;1.35;;
25870;SDS011;13689;48.590;7.752;2023-11-21T04:50:54;3.05;;;1.20;;
25870;SDS011;13689;48.590;7.752;2023-11-21T04:53:20;5.03;;;1.50;;
25870;SDS011;13689;48.590;7.752;2023-11-21T04:55:45;2.95;;;1.40;;
25870;SDS011;13689;48.590;7.752;2023-11-21T04:58:11;7.15;;;1.88;;
25870;SDS011;13689;48.590;7.752;2023-11-21T05:00:37;5.70;;;1.50;;
25870;SDS011;13689;48.590;7.752;2023-11-21T05:03:03;7.72;;;1.45;;
25870;SDS011;13689;48.590;7.752;2023-11-21T05:05:30;7.10;;;2.03;;
25870;SDS011;13689;48.590;7.752;2023-11-21T05:07:55;7.85;;;1.58;;
25870;SDS011;13689;48.590;7.752;2023-11-21T05:10:21;3.97;;;1.60;;
25870;SDS011;13689;48.590;7.752;2023-11-21T05:12:47;2.55;;;1.45;;
25870;SDS011;13689;48.590;7.752;2023-11-21T05:15:15;4.82;;;1.85;;
25870;SDS011;13689;48.590;7.752;2023-11-21T05:17:44;6.07;;;1.75;;
25870;SDS011;13689;48.590;7.752;2023-11-21T05:20:14;4.47;;;1.50;;
25870;SDS011;13689;48.590;7.752;2023-11-21T05:22:43;6.22;;;1.70;;
25870;SDS011;13689;48.590;7.752;2023-11-21T05:25:08;9.93;;;1.70;;
25870;SDS011;13689;48.590;7.752;2023-11-21T05:27:35;4.45;;;1.98;;
25870;SDS011;13689;48.590;7.752;2023-11-21T05:30:04;3.30;;;1.63;;
25870;SDS011;13689;48.590;7.752;2023-11-21T05:32:31;8.27;;;1.85;;
25870;SDS011;13689;48.590;7.752;2023-11-21T05:34:57;4.68;;;2.55;;
25870;SDS011;13689;48.590;7.752;2023-11-21T05:37:22;1.95;;;1.73;;
25870;SDS011;13689;48.590;7.752;2023-11-21T05:39:52;6.03;;;2.75;;
25870;SDS011;13689;48.590;7.752;2023-11-21T05:42:18;2.53;;;2.08;;
25870;SDS011;13689;48.590;7.752;2023-11-21T05:44:44;4.63;;;2.60;;
25870;SDS011;13689;48.590;7.752;2023-11-21T05:47:10;6.32;;;3.17;;
25870;SDS011;13689;48.590;7.752;2023-11-21T05:49:35;7.60;;;3.53;;
25870;SDS011;13689;48.590;7.752;2023-11-21T05:52:02;5.25;;;2.85;;
25870;SDS011;13689;48.590;7.752;2023-11-21T05:54:27;8.60;;;3.22;;
25870;SDS011;13689;48.590;7.752;2023-11-21T05:56:53;10.95;;;5.20;;
25870;SDS011;13689;48.590;7.752;2023-11-21T05:59:19;11.35;;;4.30;;
25870;SDS011;13689;48.590;7.752;2023-11-21T06:01:45;11.68;;;5.18;;
25870;SDS011;13689;48.590;7.752;2023-11-21T06:04:11;8.40;;;4.63;;
25870;SDS011;13689;48.590;7.752;2023-11-21T06:06:38;12.50;;;5.30;;
25870;SDS011;13689;48.590;7.752;2023-11-21T06:09:04;6.03;;;3.92;;
25870;SDS011;13689;48.590;7.752;2023-11-21T06:11:31;8.30;;;3.15;;
25870;SDS011;13689;48.590;7.752;2023-11-21T06:13:57;7.28;;;2.80;;
25870;SDS011;13689;48.590;7.752;2023-11-21T06:16:23;3.95;;;2.63;;
25870;SDS011;13689;48.590;7.752;2023-11-21T06:18:49;6.53;;;2.40;;
25870;SDS011;13689;48.590;7.752;2023-11-21T06:21:15;3.03;;;1.88;;
25870;SDS011;13689;48.590;7.752;2023-11-21T06:23:42;4.15;;;1.67;;
25870;SDS011;13689;48.590;7.752;2023-11-21T06:26:07;3.70;;;1.85;;
25870;SDS011;13689;48.590;7.752;2023-11-21T06:28:34;6.88;;;2.10;;
25870;SDS011;13689;48.590;7.752;2023-11-21T06:31:01;3.13;;;2.22;;
25870;SDS011;13689;48.590;7.752;2023-11-21T06:33:33;3.92;;;2.00;;
25870;SDS011;13689;48.590;7.752;2023-11-21T06:35:59;4.78;;;2.00;;
25870;SDS011;13689;48.590;7.752;2023-11-21T06:38:28;8.27;;;2.92;;
25870;SDS011;13689;48.590;7.752;2023-11-21T06:40:55;7.80;;;2.72;;
25870;SDS011;13689;48.590;7.752;2023-11-21T06:43:22;6.05;;;2.40;;
25870;SDS011;13689;48.590;7.752;2023-11-21T06:45:47;7.22;;;3.53;;
25870;SDS011;13689;48.590;7.752;2023-11-21T06:48:14;7.72;;;4.18;;
25870;SDS011;13689;48.590;7.752;2023-11-21T06:50:40;7.70;;;3.78;;
25870;SDS011;13689;48.590;7.752;2023-11-21T06:53:06;6.80;;;4.28;;
25870;SDS011;13689;48.590;7.752;2023-11-21T06:55:33;10.80;;;4.90;;
25870;SDS011;13689;48.590;7.752;2023-11-21T06:57:58;10.77;;;4.20;;
25870;SDS011;13689;48.590;7.752;2023-11-21T07:00:25;6.63;;;3.78;;
25870;SDS011;13689;48.590;7.752;2023-11-21T07:02:52;7.80;;;3.97;;
25870;SDS011;13689;48.590;7.752;2023-11-21T07:05:19;12.07;;;4.30;;
25870;SDS011;13689;48.590;7.752;2023-11-21T07:07:46;7.63;;;2.85;;
25870;SDS011;13689;48.590;7.752;2023-11-21T07:10:13;14.15;;;4.22;;
25870;SDS011;13689;48.590;7.752;2023-11-21T07:12:38;7.13;;;4.25;;
25870;SDS011;13689;48.590;7.752;2023-11-21T07:15:05;13.73;;;4.18;;
25870;SDS011;13689;48.590;7.752;2023-11-21T07:17:34;11.15;;;4.40;;
25870;SDS011;13689;48.590;7.752;2023-11-21T07:20:00;12.63;;;4.25;;
25870;SDS011;13689;48.590;7.752;2023-11-21T07:22:29;11.32;;;4.38;;
25870;SDS011;13689;48.590;7.752;2023-11-21T07:24:55;10.20;;;4.18;;
25870;SDS011;13689;48.590;7.752;2023-11-21T07:27:21;6.70;;;4.13;;
25870;SDS011;13689;48.590;7.752;2023-11-21T07:29:47;5.03;;;3.15;;
25870;SDS011;13689;48.590;7.752;2023-11-21T07:32:13;8.60;;;4.22;;
25870;SDS011;13689;48.590;7.752;2023-11-21T07:34:39;9.60;;;4.07;;
25870;SDS011;13689;48.590;7.752;2023-11-21T07:37:06;13.02;;;4.53;;
25870;SDS011;13689;48.590;7.752;2023-11-21T07:39:33;5.50;;;3.13;;
25870;SDS011;13689;48.590;7.752;2023-11-21T07:42:00;18.83;;;4.80;;
25870;SDS011;13689;48.590;7.752;2023-11-21T07:44:27;7.20;;;3.92;;
25870;SDS011;13689;48.590;7.752;2023-11-21T07:46:54;5.20;;;4.00;;
25870;SDS011;13689;48.590;7.752;2023-11-21T07:49:22;13.07;;;4.30;;
25870;SDS011;13689;48.590;7.752;2023-11-21T07:51:48;9.30;;;4.03;;
25870;SDS011;13689;48.590;7.752;2023-11-21T07:54:14;8.02;;;4.20;;
25870;SDS011;13689;48.590;7.752;2023-11-21T07:56:40;7.68;;;4.50;;
25870;SDS011;13689;48.590;7.752;2023-11-21T07:59:07;9.52;;;4.40;;
25870;SDS011;13689;48.590;7.752;2023-11-21T08:01:33;7.25;;;4.32;;
25870;SDS011;13689;48.590;7.752;2023-11-21T08:03:58;9.57;;;4.05;;
25870;SDS011;13689;48.590;7.752;2023-11-21T08:06:28;12.52;;;4.78;;
25870;SDS011;13689;48.590;7.752;2023-11-21T08:08:57;11.23;;;4.70;;
25870;SDS011;13689;48.590;7.752;2023-11-21T08:11:23;8.27;;;4.47;;
25870;SDS011;13689;48.590;7.752;2023-11-21T08:13:49;9.15;;;4.65;;
25870;SDS011;13689;48.590;7.752;2023-11-21T08:16:15;13.88;;;5.40;;
25870;SDS011;13689;48.590;7.752;2023-11-21T08:18:41;7.10;;;4.25;;
25870;SDS011;13689;48.590;7.752;2023-11-21T08:21:07;8.02;;;5.03;;
25870;SDS011;13689;48.590;7.752;2023-11-21T08:23:33;9.13;;;4.50;;
25870;SDS011;13689;48.590;7.752;2023-11-21T08:25:59;10.95;;;4.25;;
25870;SDS011;13689;48.590;7.752;2023-11-21T08:28:27;8.48;;;4.93;;
25870;SDS011;13689;48.590;7.752;2023-11-21T08:30:52;11.75;;;4.93;;
25870;SDS011;13689;48.590;7.752;2023-11-21T08:33:19;6.55;;;4.55;;
25870;SDS011;13689;48.590;7.752;2023-11-21T08:35:44;9.35;;;5.00;;
25870;SDS011;13689;48.590;7.752;2023-11-21T08:38:11;9.75;;;5.15;;
25870;SDS011;13689;48.590;7.752;2023-11-21T08:40:37;12.25;;;5.35;;
25870;SDS011;13689;48.590;7.752;2023-11-21T08:43:02;7.72;;;4.68;;
25870;SDS011;13689;48.590;7.752;2023-11-21T08:45:29;9.27;;;5.05;;
25870;SDS011;13689;48.590;7.752;2023-11-21T08:47:55;8.77;;;5.72;;
25870;SDS011;13689;48.590;7.752;2023-11-21T08:50:21;12.60;;;5.20;;
25870;SDS011;13689;48.590;7.752;2023-11-21T08:52:46;8.88;;;5.93;;
25870;SDS011;13689;48.590;7.752;2023-11-21T08:55:12;8.20;;;4.97;;
25870;SDS011;13689;48.590;7.752;2023-11-21T08:57:39;7.93;;;4.95;;
25870;SDS011;13689;48.590;7.752;2023-11-21T09:00:09;10.77;;;6.03;;
25870;SDS011;13689;48.590;7.752;2023-11-21T09:02:39;13.27;;;6.38;;
25870;SDS011;13689;48.590;7.752;2023-11-21T09:05:08;15.77;;;6.68;;
25870;SDS011;13689;48.590;7.752;2023-11-21T09:07:34;11.25;;;5.95;;
25870;SDS011;13689;48.590;7.752;2023-11-21T09:10:04;8.60;;;5.85;;
25870;SDS011;13689;48.590;7.752;2023-11-21T09:14:58;8.45;;;5.72;;
25870;SDS011;13689;48.590;7.752;2023-11-21T09:17:23;7.30;;;5.40;;
25870;SDS011;13689;48.590;7.752;2023-11-21T09:19:49;12.68;;;6.28;;
25870;SDS011;13689;48.590;7.752;2023-11-21T09:22:16;10.75;;;6.05;;
25870;SDS011;13689;48.590;7.752;2023-11-21T09:24:42;13.10;;;6.72;;
25870;SDS011;13689;48.590;7.752;2023-11-21T09:27:08;14.48;;;6.70;;
25870;SDS011;13689;48.590;7.752;2023-11-21T09:29:34;12.10;;;7.82;;
25870;SDS011;13689;48.590;7.752;2023-11-21T09:32:00;12.40;;;6.65;;
25870;SDS011;13689;48.590;7.752;2023-11-21T09:34:26;14.93;;;6.85;;
25870;SDS011;13689;48.590;7.752;2023-11-21T09:36:52;13.98;;;6.28;;
25870;SDS011;13689;48.590;7.752;2023-11-21T09:39:18;10.88;;;6.82;;
25870;SDS011;13689;48.590;7.752;2023-11-21T09:41:46;12.20;;;6.95;;
25870;SDS011;13689;48.590;7.752;2023-11-21T09:44:16;12.63;;;7.28;;
25870;SDS011;13689;48.590;7.752;2023-11-21T09:46:43;17.38;;;7.93;;
25870;SDS011;13689;48.590;7.752;2023-11-21T09:49:13;12.43;;;7.18;;
25870;SDS011;13689;48.590;7.752;2023-11-21T09:51:42;20.83;;;7.53;;
25870;SDS011;13689;48.590;7.752;2023-11-21T09:54:08;16.30;;;7.90;;
25870;SDS011;13689;48.590;7.752;2023-11-21T09:56:37;16.15;;;7.72;;
25870;SDS011;13689;48.590;7.752;2023-11-21T09:59:03;14.90;;;7.77;;
25870;SDS011;13689;48.590;7.752;2023-11-21T10:01:32;14.07;;;7.47;;
25870;SDS011;13689;48.590;7.752;2023-11-21T10:04:00;12.20;;;7.03;;
25870;SDS011;13689;48.590;7.752;2023-11-21T10:06:26;11.07;;;6.50;;
25870;SDS011;13689;48.590;7.752;2023-11-21T10:08:52;10.95;;;6.30;;
25870;SDS011;13689;48.590;7.752;2023-11-21T10:11:21;11.82;;;6.03;;
25870;SDS011;13689;48.590;7.752;2023-11-21T10:13:52;9.77;;;5.45;;
25870;SDS011;13689;48.590;7.752;2023-11-21T10:16:22;10.65;;;5.25;;
25870;SDS011;13689;48.590;7.752;2023-11-21T10:18:51;8.20;;;4.50;;
25870;SDS011;13689;48.590;7.752;2023-11-21T10:21:19;8.55;;;4.47;;
25870;SDS011;13689;48.590;7.752;2023-11-21T10:23:45;5.68;;;3.70;;
25870;SDS011;13689;48.590;7.752;2023-11-21T10:26:11;6.22;;;3.83;;
25870;SDS011;13689;48.590;7.752;2023-11-21T10:29:02;11.85;;;3.78;;
25870;SDS011;13689;48.590;7.752;2023-11-21T10:31:30;4.40;;;2.63;;
25870;SDS011;13689;48.590;7.752;2023-11-21T10:36:41;11.07;;;3.33;;
25870;SDS011;13689;48.590;7.752;2023-11-21T10:39:07;7.55;;;2.83;;
25870;SDS011;13689;48.590;7.752;2023-11-21T10:41:33;7.18;;;3.15;;
25870;SDS011;13689;48.590;7.752;2023-11-21T10:44:00;6.10;;;2.85;;
25870;SDS011;13689;48.590;7.752;2023-11-21T10:46:29;6.18;;;2.95;;
25870;SDS011;13689;48.590;7.752;2023-11-21T10:48:55;6.60;;;3.50;;
25870;SDS011;13689;48.590;7.752;2023-11-21T10:51:21;9.52;;;3.40;;
25870;SDS011;13689;48.590;7.752;2023-11-21T10:53:47;5.90;;;3.92;;
25870;SDS011;13689;48.590;7.752;2023-11-21T10:56:15;5.65;;;3.20;;
25870;SDS011;13689;48.590;7.752;2023-11-21T10:58:45;5.35;;;3.00;;
25870;SDS011;13689;48.590;7.752;2023-11-21T11:01:11;7.43;;;4.05;;
25870;SDS011;13689;48.590;7.752;2023-11-21T11:06:05;7.07;;;3.45;;
25870;SDS011;13689;48.590;7.752;2023-11-21T11:08:36;9.27;;;4.35;;
25870;SDS011;13689;48.590;7.752;2023-11-21T11:11:02;6.72;;;3.58;;
25870;SDS011;13689;48.590;7.752;2023-11-21T11:13:31;6.72;;;3.10;;
25870;SDS011;13689;48.590;7.752;2023-11-21T11:15:58;9.77;;;3.67;;
25870;SDS011;13689;48.590;7.752;2023-11-21T11:18:29;9.52;;;4.30;;
25870;SDS011;13689;48.590;7.752;2023-11-21T11:20:57;11.60;;;4.75;;
25870;SDS011;13689;48.590;7.752;2023-11-21T11:23:44;9.80;;;4.53;;
25870;SDS011;13689;48.590;7.752;2023-11-21T11:26:33;6.93;;;3.83;;
25870;SDS011;13689;48.590;7.752;2023-11-21T11:33:29;8.48;;;4.30;;
25870;SDS011;13689;48.590;7.752;2023-11-21T11:38:14;8.13;;;5.10;;
25870;SDS011;13689;48.590;7.752;2023-11-21T11:40:40;9.70;;;4.18;;
25870;SDS011;13689;48.590;7.752;2023-11-21T11:43:09;10.82;;;5.43;;
25870;SDS011;13689;48.590;7.752;2023-11-21T11:45:35;14.88;;;5.57;;
25870;SDS011;13689;48.590;7.752;2023-11-21T11:48:02;8.90;;;4.90;;
25870;SDS011;13689;48.590;7.752;2023-11-21T11:50:29;9.45;;;4.63;;
25870;SDS011;13689;48.590;7.752;2023-11-21T11:52:55;8.43;;;5.18;;
25870;SDS011;13689;48.590;7.752;2023-11-21T11:55:36;10.85;;;5.18;;
25870;SDS011;13689;48.590;7.752;2023-11-21T11:58:04;10.43;;;4.90;;
25870;SDS011;13689;48.590;7.752;2023-11-21T12:00:34;11.23;;;4.85;;
25870;SDS011;13689;48.590;7.752;2023-11-21T12:03:05;7.50;;;4.32;;
25870;SDS011;13689;48.590;7.752;2023-11-21T12:05:32;5.20;;;3.08;;
25870;SDS011;13689;48.590;7.752;2023-11-21T12:08:06;5.03;;;2.92;;
25870;SDS011;13689;48.590;7.752;2023-11-21T12:10:33;5.03;;;3.40;;
25870;SDS011;13689;48.590;7.752;2023-11-21T12:15:32;4.80;;;2.42;;
25870;SDS011;13689;48.590;7.752;2023-11-21T12:17:58;4.45;;;2.28;;
25870;SDS011;13689;48.590;7.752;2023-11-21T12:20:25;3.72;;;2.67;;
25870;SDS011;13689;48.590;7.752;2023-11-21T12:22:52;6.40;;;2.17;;
25870;SDS011;13689;48.590;7.752;2023-11-21T12:25:25;3.38;;;2.13;;
25870;SDS011;13689;48.590;7.752;2023-11-21T12:27:54;2.38;;;2.03;;
25870;SDS011;13689;48.590;7.752;2023-11-21T12:30:21;2.63;;;1.50;;
25870;SDS011;13689;48.590;7.752;2023-11-21T12:32:49;3.40;;;1.50;;
25870;SDS011;13689;48.590;7.752;2023-11-21T12:35:22;3.65;;;1.50;;
25870;SDS011;13689;48.590;7.752;2023-11-21T12:37:51;2.92;;;1.40;;
25870;SDS011;13689;48.590;7.752;2023-11-21T12:40:17;2.30;;;1.38;;
25870;SDS011;13689;48.590;7.752;2023-11-21T12:42:47;1.60;;;1.40;;
25870;SDS011;13689;48.590;7.752;2023-11-21T12:47:52;1.30;;;0.98;;
25870;SDS011;13689;48.590;7.752;2023-11-21T12:50:26;1.50;;;1.40;;
25870;SDS011;13689;48.590;7.752;2023-11-21T12:55:33;1.63;;;1.52;;
25870;SDS011;13689;48.590;7.752;2023-11-21T12:58:03;2.25;;;1.80;;
25870;SDS011;13689;48.590;7.752;2023-11-21T13:05:30;4.57;;;1.80;;
25870;SDS011;13689;48.590;7.752;2023-11-21T13:07:58;2.97;;;1.90;;
25870;SDS011;13689;48.590;7.752;2023-11-21T13:10:28;3.15;;;2.20;;
25870;SDS011;13689;48.590;7.752;2023-11-21T13:12:58;4.45;;;2.25;;
25870;SDS011;13689;48.590;7.752;2023-11-21T13:15:26;5.97;;;2.10;;
25870;SDS011;13689;48.590;7.752;2023-11-21T13:17:52;2.95;;;2.28;;
25870;SDS011;13689;48.590;7.752;2023-11-21T13:20:19;3.70;;;2.80;;
25870;SDS011;13689;48.590;7.752;2023-11-21T13:22:52;2.50;;;2.13;;
25870;SDS011;13689;48.590;7.752;2023-11-21T13:25:22;4.03;;;2.30;;
25870;SDS011;13689;48.590;7.752;2023-11-21T13:27:56;5.55;;;2.70;;
25870;SDS011;13689;48.590;7.752;2023-11-21T13:30:24;3.95;;;2.90;;
25870;SDS011;13689;48.590;7.752;2023-11-21T13:32:55;3.25;;;2.13;;
25870;SDS011;13689;48.590;7.752;2023-11-21T13:35:27;5.13;;;2.63;;
25870;SDS011;13689;48.590;7.752;2023-11-21T13:38:12;19.63;;;6.13;;
25870;SDS011;13689;48.590;7.752;2023-11-21T13:40:40;3.00;;;2.20;;
25870;SDS011;13689;48.590;7.752;2023-11-21T13:43:14;5.30;;;2.70;;
25870;SDS011;13689;48.590;7.752;2023-11-21T13:45:41;3.17;;;2.47;;
25870;SDS011;13689;48.590;7.752;2023-11-21T13:48:08;2.72;;;2.13;;
25870;SDS011;13689;48.590;7.752;2023-11-21T13:50:42;4.05;;;2.30;;
25870;SDS011;13689;48.590;7.752;2023-11-21T13:53:22;2.13;;;1.83;;
25870;SDS011;13689;48.590;7.752;2023-11-21T13:55:51;4.03;;;1.95;;
25870;SDS011;13689;48.590;7.752;2023-11-21T13:58:22;2.85;;;1.98;;
25870;SDS011;13689;48.590;7.752;2023-11-21T14:01:07;3.35;;;2.00;;
25870;SDS011;13689;48.590;7.752;2023-11-21T14:04:02;2.05;;;1.75;;
25870;SDS011;13689;48.590;7.752;2023-11-21T14:06:40;3.03;;;1.77;;
25870;SDS011;13689;48.590;7.752;2023-11-21T14:09:14;2.95;;;1.52;;
25870;SDS011;13689;48.590;7.752;2023-11-21T14:11:47;3.45;;;1.70;;
25870;SDS011;13689;48.590;7.752;2023-11-21T14:14:26;2.33;;;1.83;;
25870;SDS011;13689;48.590;7.752;2023-11-21T14:16:55;1.90;;;1.70;;
25870;SDS011;13689;48.590;7.752;2023-11-21T14:19:22;2.40;;;1.42;;
25870;SDS011;13689;48.590;7.752;2023-11-21T14:21:52;2.65;;;1.70;;
25870;SDS011;13689;48.590;7.752;2023-11-21T14:24:18;6.47;;;1.52;;
25870;SDS011;13689;48.590;7.752;2023-11-21T14:26:46;4.45;;;1.88;;
25870;SDS011;13689;48.590;7.752;2023-11-21T14:29:12;2.55;;;1.85;;
25870;SDS011;13689;48.590;7.752;2023-11-21T14:31:41;4.25;;;1.90;;
25870;SDS011;13689;48.590;7.752;2023-11-21T14:34:07;4.07;;;2.03;;
25870;SDS011;13689;48.590;7.752;2023-11-21T14:36:33;7.15;;;2.40;;
25870;SDS011;13689;48.590;7.752;2023-11-21T14:38:59;3.30;;;2.00;;
25870;SDS011;13689;48.590;7.752;2023-11-21T14:41:25;2.20;;;1.75;;
25870;SDS011;13689;48.590;7.752;2023-11-21T14:43:52;3.70;;;2.17;;
25870;SDS011;13689;48.590;7.752;2023-11-21T14:46:19;2.42;;;1.92;;
25870;SDS011;13689;48.590;7.752;2023-11-21T14:48:45;1.33;;;1.23;;
25870;SDS011;13689;48.590;7.752;2023-11-21T14:53:55;6.57;;;1.55;;
25870;SDS011;13689;48.590;7.752;2023-11-21T14:56:26;8.23;;;1.60;;
25870;SDS011;13689;48.590;7.752;2023-11-21T14:58:56;6.03;;;1.70;;
25870;SDS011;13689;48.590;7.752;2023-11-21T15:01:26;5.37;;;1.50;;
25870;SDS011;13689;48.590;7.752;2023-11-21T15:04:24;3.25;;;1.90;;
25870;SDS011;13689;48.590;7.752;2023-11-21T15:07:01;4.28;;;1.60;;
25870;SDS011;13689;48.590;7.752;2023-11-21T15:09:28;3.43;;;2.03;;
25870;SDS011;13689;48.590;7.752;2023-11-21T15:11:57;6.30;;;2.63;;
25870;SDS011;13689;48.590;7.752;2023-11-21T15:14:29;4.28;;;1.95;;
25870;SDS011;13689;48.590;7.752;2023-11-21T15:16:57;11.57;;;2.53;;
25870;SDS011;13689;48.590;7.752;2023-11-21T15:19:25;4.10;;;2.30;;